createdAt,value
2018-07-14T00:02:00.842Z,51.35
2018-07-14T00:04:28.376Z,51.58
2018-07-14T00:06:55.844Z,51.79
2018-07-14T00:09:23.266Z,51.92
2018-07-14T00:11:50.815Z,52.29
2018-07-14T00:14:18.217Z,52.37
2018-07-14T00:16:45.705Z,51.85
2018-07-14T00:19:13.172Z,51.80
2018-07-14T00:21:40.609Z,52.74
2018-07-14T00:24:08.059Z,52.43
2018-07-14T00:26:35.517Z,51.45
2018-07-14T00:29:03.020Z,51.97
2018-07-14T00:31:30.508Z,51.94
2018-07-14T00:33:58.005Z,51.72
2018-07-14T00:36:25.412Z,52.50
2018-07-14T00:38:52.852Z,52.78
2018-07-14T00:41:20.296Z,51.64
2018-07-14T00:43:47.752Z,52.77
2018-07-14T00:46:15.206Z,52.66
2018-07-14T00:48:42.944Z,51.56
2018-07-14T00:51:10.391Z,51.07
2018-07-14T00:53:37.859Z,51.06
2018-07-14T00:56:05.336Z,50.83
2018-07-14T00:58:32.847Z,50.93
2018-07-14T01:01:00.286Z,51.15
2018-07-14T01:03:27.775Z,51.13
2018-07-14T01:05:55.201Z,51.45
2018-07-14T01:08:22.607Z,52.06
2018-07-14T01:10:50.009Z,52.24
2018-07-14T01:13:17.477Z,52.65
2018-07-14T01:15:44.916Z,52.88
2018-07-14T01:18:12.371Z,53.38
2018-07-14T01:20:39.799Z,54.30
2018-07-14T01:23:07.395Z,54.59
2018-07-14T01:25:34.945Z,54.72
2018-07-14T01:28:02.419Z,54.60
2018-07-14T01:30:29.945Z,54.31
2018-07-14T01:32:57.390Z,54.98
2018-07-14T01:35:24.820Z,54.96
2018-07-14T01:37:52.258Z,54.93
2018-07-14T01:40:19.736Z,54.61
2018-07-14T01:42:47.175Z,54.48
2018-07-14T01:45:14.947Z,54.50
2018-07-14T01:47:42.406Z,54.77
2018-07-14T01:50:09.896Z,55.15
2018-07-14T01:52:37.371Z,55.34
2018-07-14T01:55:04.874Z,55.54
2018-07-14T01:57:32.414Z,56.08
2018-07-14T01:59:59.831Z,54.61
2018-07-14T02:02:27.308Z,55.35
2018-07-14T02:04:54.825Z,55.61
2018-07-14T02:07:22.360Z,55.83
2018-07-14T02:09:49.805Z,56.39
2018-07-14T02:12:17.234Z,56.65
2018-07-14T02:14:44.679Z,56.53
2018-07-14T02:17:12.345Z,55.93
2018-07-14T02:19:39.804Z,56.26
2018-07-14T02:22:07.262Z,54.95
2018-07-14T02:24:34.720Z,55.83
2018-07-14T02:27:02.136Z,56.54
2018-07-14T02:29:29.568Z,56.79
2018-07-14T02:31:56.971Z,57.07
2018-07-14T02:34:24.430Z,57.10
2018-07-14T02:36:51.878Z,56.90
2018-07-14T02:39:19.344Z,56.98
2018-07-14T02:41:46.776Z,55.77
2018-07-14T02:44:15.058Z,55.95
2018-07-14T02:46:42.564Z,57.01
2018-07-14T02:49:10.048Z,57.45
2018-07-14T02:51:37.506Z,57.54
2018-07-14T02:54:04.948Z,57.27
2018-07-14T02:56:32.400Z,57.32
2018-07-14T02:58:59.881Z,57.43
2018-07-14T03:01:27.278Z,57.27
2018-07-14T03:03:54.761Z,57.30
2018-07-14T03:06:22.282Z,57.26
2018-07-14T03:08:49.728Z,57.47
2018-07-14T03:11:17.202Z,58.19
2018-07-14T03:13:44.850Z,59.08
2018-07-14T03:16:12.331Z,59.38
2018-07-14T03:18:39.753Z,59.69
2018-07-14T03:21:07.270Z,59.83
2018-07-14T03:23:34.720Z,59.49
2018-07-14T03:26:02.144Z,59.56
2018-07-14T03:28:29.643Z,59.36
2018-07-14T03:30:57.038Z,59.57
2018-07-14T03:35:58.223Z,59.50
2018-07-14T03:38:25.684Z,59.55
2018-07-14T03:40:53.178Z,59.69
2018-07-14T03:43:20.673Z,59.60
2018-07-14T03:45:48.157Z,59.76
2018-07-14T03:48:15.611Z,59.79
2018-07-14T03:50:43.054Z,59.87
2018-07-14T03:53:10.488Z,59.47
2018-07-14T03:55:37.922Z,59.18
2018-07-14T03:58:05.339Z,58.50
2018-07-14T04:00:32.775Z,58.08
2018-07-14T04:03:00.258Z,58.23
2018-07-14T04:05:27.755Z,58.15
2018-07-14T04:07:55.164Z,58.58
2018-07-14T04:10:22.614Z,58.29
2018-07-14T04:12:50.013Z,58.36
2018-07-14T04:15:17.497Z,58.52
2018-07-14T04:17:44.971Z,59.30
2018-07-14T04:20:12.565Z,59.44
2018-07-14T04:22:39.997Z,59.41
2018-07-14T04:25:07.477Z,59.50
2018-07-14T04:27:34.956Z,59.59
2018-07-14T04:30:02.443Z,59.50
2018-07-14T04:32:29.890Z,59.15
2018-07-14T04:34:57.352Z,59.04
2018-07-14T04:37:24.830Z,59.07
2018-07-14T04:39:52.372Z,58.57
2018-07-14T04:42:19.907Z,58.57
2018-07-14T04:44:47.424Z,58.56
2018-07-14T04:47:14.872Z,58.67
2018-07-14T04:49:42.316Z,58.27
2018-07-14T04:52:09.814Z,57.78
2018-07-14T04:54:37.249Z,56.89
2018-07-14T04:57:04.748Z,56.42
2018-07-14T04:59:32.177Z,56.64
2018-07-14T05:01:59.582Z,56.70
2018-07-14T05:04:27.076Z,56.49
2018-07-14T05:06:54.560Z,56.60
2018-07-14T05:09:21.959Z,56.44
2018-07-14T05:11:49.417Z,55.92
2018-07-14T05:14:16.822Z,55.70
2018-07-14T05:16:44.271Z,55.22
2018-07-14T05:19:11.745Z,55.11
2018-07-14T05:21:39.230Z,54.53
2018-07-14T05:24:06.733Z,54.10
2018-07-14T05:26:34.176Z,53.85
2018-07-14T05:29:01.623Z,53.75
2018-07-14T05:31:29.061Z,53.09
2018-07-14T05:33:56.511Z,52.31
2018-07-14T05:36:23.914Z,51.95
2018-07-14T05:38:51.346Z,51.79
2018-07-14T05:41:18.847Z,51.56
2018-07-14T05:43:46.386Z,52.04
2018-07-14T05:46:13.857Z,52.67
2018-07-14T05:48:41.328Z,52.56
2018-07-14T05:51:08.761Z,52.19
2018-07-14T05:53:36.201Z,51.47
2018-07-14T05:56:03.670Z,50.65
2018-07-14T05:58:31.136Z,50.54
2018-07-14T06:00:58.718Z,50.44
2018-07-14T06:03:26.458Z,50.34
2018-07-14T06:05:53.974Z,50.70
2018-07-14T06:08:21.423Z,50.60
2018-07-14T06:10:48.901Z,50.50
2018-07-14T06:13:17.273Z,50.47
2018-07-14T06:15:44.686Z,50.15
2018-07-14T06:18:12.128Z,50.18
2018-07-14T06:20:39.608Z,49.83
2018-07-14T06:23:07.077Z,49.63
2018-07-14T06:25:34.908Z,49.38
2018-07-14T06:28:02.382Z,49.55
2018-07-14T06:30:29.821Z,49.68
2018-07-14T06:32:57.269Z,48.76
2018-07-14T06:35:24.694Z,48.55
2018-07-14T06:37:52.159Z,48.53
2018-07-14T06:40:19.562Z,49.16
2018-07-14T06:42:47.013Z,49.36
2018-07-14T06:45:14.470Z,49.48
2018-07-14T06:47:43.864Z,49.93
2018-07-14T06:50:11.340Z,50.72
2018-07-14T06:52:38.818Z,52.06
2018-07-14T06:55:06.226Z,52.14
2018-07-14T06:57:33.875Z,51.54
2018-07-14T07:00:01.362Z,51.04
2018-07-14T07:02:28.900Z,50.66
2018-07-14T07:04:56.398Z,50.61
2018-07-14T07:07:23.881Z,50.94
2018-07-14T07:09:51.310Z,50.70
2018-07-14T07:12:18.823Z,50.23
2018-07-14T07:14:46.242Z,49.60
2018-07-14T07:17:13.695Z,48.47
2018-07-14T07:19:41.167Z,47.48
2018-07-14T07:22:08.680Z,46.24
2018-07-14T07:24:36.132Z,45.26
2018-07-14T07:27:03.595Z,44.39
2018-07-14T07:29:30.982Z,44.63
2018-07-14T07:31:58.467Z,44.56
2018-07-14T07:34:25.895Z,42.38
2018-07-14T07:36:54.054Z,40.76
2018-07-14T07:39:21.453Z,38.84
2018-07-14T07:41:48.962Z,38.15
2018-07-14T07:44:16.409Z,37.13
2018-07-14T07:46:43.906Z,36.73
2018-07-14T07:49:11.380Z,35.76
2018-07-14T07:51:38.834Z,34.80
2018-07-14T07:54:06.341Z,33.73
2018-07-14T07:56:33.791Z,34.58
2018-07-14T07:59:01.226Z,34.56
2018-07-14T08:01:28.855Z,35.53
2018-07-14T08:03:56.303Z,35.52
2018-07-14T08:06:23.778Z,36.26
2018-07-14T08:08:51.286Z,36.54
2018-07-14T08:11:18.730Z,37.14
2018-07-14T08:13:46.250Z,36.89
2018-07-14T08:16:13.846Z,36.75
2018-07-14T08:18:41.218Z,35.51
2018-07-14T08:21:08.703Z,35.10
2018-07-14T08:23:36.158Z,34.55
2018-07-14T08:26:03.600Z,34.67
2018-07-14T08:28:31.060Z,35.20
2018-07-14T08:30:58.497Z,35.23
2018-07-14T08:33:25.930Z,34.58
2018-07-14T08:35:53.412Z,32.97
2018-07-14T08:38:20.892Z,33.49
2018-07-14T08:40:48.406Z,33.80
2018-07-14T08:43:15.872Z,33.96
2018-07-14T08:45:43.344Z,33.17
2018-07-14T08:48:10.749Z,33.75
2018-07-14T08:50:38.220Z,33.74
2018-07-14T08:53:05.701Z,33.29
2018-07-14T08:55:33.141Z,33.52
2018-07-14T08:58:00.916Z,33.54
2018-07-14T09:00:28.442Z,33.97
2018-07-14T09:02:56.035Z,34.47
2018-07-14T09:05:23.619Z,33.95
2018-07-14T09:07:51.052Z,33.39
2018-07-14T09:10:18.550Z,33.70
2018-07-14T09:12:46.025Z,33.93
2018-07-14T09:15:13.512Z,33.92
2018-07-14T09:17:40.942Z,33.35
2018-07-14T09:20:08.495Z,33.71
2018-07-14T09:22:36.055Z,33.60
2018-07-14T09:25:03.555Z,33.64
2018-07-14T09:27:31.065Z,34.00
2018-07-14T09:29:58.549Z,34.46
2018-07-14T09:32:26.065Z,34.08
2018-07-14T09:34:53.524Z,32.95
2018-07-14T09:37:21.044Z,32.85
2018-07-14T09:39:48.595Z,32.19
2018-07-14T09:42:15.998Z,32.00
2018-07-14T09:44:43.046Z,31.34
2018-07-14T09:47:10.071Z,30.97
2018-07-14T09:49:37.184Z,30.68
2018-07-14T09:52:04.437Z,31.17
2018-07-14T09:54:31.444Z,31.79
2018-07-14T09:56:58.511Z,32.11
2018-07-14T09:59:26.010Z,32.13
2018-07-14T10:01:53.166Z,32.31
2018-07-14T10:04:20.519Z,32.55
2018-07-14T10:06:48.055Z,32.72
2018-07-14T10:09:15.077Z,32.58
2018-07-14T10:11:42.104Z,32.89
2018-07-14T10:14:09.735Z,33.27
2018-07-14T10:16:36.859Z,32.85
2018-07-14T10:19:04.221Z,32.48
2018-07-14T10:21:31.434Z,31.46
2018-07-14T10:23:58.418Z,31.24
2018-07-14T10:26:25.564Z,31.99
2018-07-14T10:28:52.753Z,32.73
2018-07-14T10:31:19.782Z,33.25
2018-07-14T10:33:46.774Z,32.16
2018-07-14T10:36:13.836Z,32.09
2018-07-14T10:38:40.917Z,32.46
2018-07-14T10:41:07.871Z,31.88
2018-07-14T10:43:34.884Z,31.83
2018-07-14T10:46:02.089Z,31.64
2018-07-14T10:48:29.124Z,30.69
2018-07-14T10:50:56.181Z,30.52
2018-07-14T10:53:23.353Z,30.65
2018-07-14T10:55:50.417Z,31.73
2018-07-14T10:58:17.359Z,30.37
2018-07-14T11:00:44.502Z,30.37
2018-07-14T11:03:11.457Z,30.13
2018-07-14T11:05:39.478Z,29.39
2018-07-14T11:08:06.532Z,30.24
2018-07-14T11:10:33.745Z,29.84
2018-07-14T11:13:01.212Z,29.42
2018-07-14T11:15:28.647Z,28.54
2018-07-14T11:17:56.210Z,27.93
2018-07-14T11:20:23.678Z,27.29
2018-07-14T11:22:51.132Z,28.72
2018-07-14T11:25:18.605Z,29.26
2018-07-14T11:27:46.062Z,29.20
2018-07-14T11:30:13.581Z,28.80
2018-07-14T11:32:41.072Z,28.60
2018-07-14T11:35:08.511Z,28.62
2018-07-14T11:37:35.959Z,27.30
2018-07-14T11:40:03.359Z,27.92
2018-07-14T11:42:30.853Z,28.09
2018-07-14T11:44:58.299Z,27.40
2018-07-14T11:47:25.812Z,27.41
2018-07-14T11:49:53.281Z,27.91
2018-07-14T11:52:20.843Z,27.77
2018-07-14T11:54:48.333Z,27.17
2018-07-14T11:57:15.803Z,26.50
2018-07-14T11:59:43.586Z,27.32
2018-07-14T12:02:11.087Z,27.42
2018-07-14T12:04:38.499Z,27.49
2018-07-14T12:07:05.990Z,27.71
2018-07-14T12:09:33.492Z,27.85
2018-07-14T12:12:01.025Z,28.35
2018-07-14T12:14:28.514Z,28.84
2018-07-14T12:16:55.962Z,29.17
2018-07-14T12:19:23.440Z,28.80
2018-07-14T12:21:50.997Z,28.26
2018-07-14T12:24:18.467Z,28.44
2018-07-14T12:26:46.025Z,28.84
2018-07-14T12:29:13.471Z,29.22
2018-07-14T12:31:40.931Z,29.09
2018-07-14T12:34:08.477Z,29.60
2018-07-14T12:36:35.960Z,29.39
2018-07-14T12:39:03.375Z,29.10
2018-07-14T12:41:31.984Z,28.85
2018-07-14T12:43:59.471Z,29.21
2018-07-14T12:46:27.125Z,29.18
2018-07-14T12:48:54.640Z,29.65
2018-07-14T12:51:22.252Z,29.91
2018-07-14T12:53:49.750Z,29.97
2018-07-14T12:56:17.184Z,29.82
2018-07-14T12:58:44.698Z,29.59
2018-07-14T13:01:12.922Z,29.74
2018-07-14T13:03:40.407Z,29.46
2018-07-14T13:06:08.180Z,28.92
2018-07-14T13:08:35.702Z,28.48
2018-07-14T13:11:03.214Z,28.30
2018-07-14T13:13:30.689Z,28.68
2018-07-14T13:15:58.180Z,28.21
2018-07-14T13:18:25.655Z,28.91
2018-07-14T13:20:53.097Z,30.43
2018-07-14T13:23:20.712Z,30.67
2018-07-14T13:25:48.252Z,31.04
2018-07-14T13:28:15.716Z,30.98
2018-07-14T13:30:43.162Z,30.77
2018-07-14T13:33:10.616Z,30.88
2018-07-14T13:35:38.081Z,31.28
2018-07-14T13:38:05.497Z,31.75
2018-07-14T13:40:32.929Z,32.32
2018-07-14T13:43:00.421Z,31.40
2018-07-14T13:45:27.969Z,31.13
2018-07-14T13:47:55.421Z,31.37
2018-07-14T13:50:22.877Z,31.15
2018-07-14T13:52:50.357Z,30.48
2018-07-14T13:55:18.074Z,30.70
2018-07-14T13:57:45.570Z,30.89
2018-07-14T14:00:13.022Z,30.70
2018-07-14T14:02:40.470Z,31.37
2018-07-14T14:05:07.915Z,31.10
2018-07-14T14:07:35.354Z,31.05
2018-07-14T14:10:02.889Z,31.29
2018-07-14T14:12:30.359Z,31.84
2018-07-14T14:14:57.844Z,32.15
2018-07-14T14:17:25.342Z,32.53
2018-07-14T14:19:52.816Z,32.84
2018-07-14T14:22:20.243Z,33.13
2018-07-14T14:24:47.649Z,33.41
2018-07-14T14:27:15.108Z,34.24
2018-07-14T14:29:42.625Z,34.85
2018-07-14T14:32:10.047Z,34.92
2018-07-14T14:34:37.446Z,35.31
2018-07-14T14:37:04.895Z,35.74
2018-07-14T14:39:32.518Z,36.81
2018-07-14T14:41:59.918Z,38.13
2018-07-14T14:44:27.338Z,38.48
2018-07-14T14:46:54.782Z,38.97
2018-07-14T14:49:22.255Z,39.24
2018-07-14T14:51:49.694Z,39.03
2018-07-14T14:54:17.102Z,40.40
2018-07-14T14:56:44.661Z,41.09
2018-07-14T14:59:12.120Z,41.48
2018-07-14T15:01:39.525Z,42.54
2018-07-14T15:04:06.947Z,43.84
2018-07-14T15:06:34.429Z,45.03
2018-07-14T15:09:01.956Z,46.35
2018-07-14T15:11:29.393Z,49.35
2018-07-14T15:13:56.912Z,49.56
2018-07-14T15:16:25.042Z,50.67
2018-07-14T15:18:52.489Z,51.12
2018-07-14T15:21:20.013Z,52.24
2018-07-14T15:23:47.567Z,52.47
2018-07-14T15:26:15.051Z,53.36
2018-07-14T15:28:42.497Z,54.36
2018-07-14T15:31:09.926Z,53.95
2018-07-14T15:33:37.569Z,53.19
2018-07-14T15:36:04.972Z,52.59
2018-07-14T15:38:32.523Z,52.72
2018-07-14T15:40:59.989Z,51.01
2018-07-14T15:43:27.465Z,50.15
2018-07-14T15:45:54.990Z,50.06
2018-07-14T15:48:22.472Z,53.31
2018-07-14T15:50:49.902Z,50.18
2018-07-14T15:53:17.368Z,49.89
2018-07-14T15:55:44.893Z,51.05
2018-07-14T15:58:12.369Z,48.48
2018-07-14T16:00:39.808Z,46.13
2018-07-14T16:03:07.233Z,44.63
2018-07-14T16:05:34.668Z,43.42
2018-07-14T16:08:02.206Z,42.80
2018-07-14T16:10:29.614Z,42.37
2018-07-14T16:12:57.055Z,45.36
2018-07-14T16:15:24.479Z,43.45
2018-07-14T16:17:51.972Z,41.00
2018-07-14T16:20:19.499Z,40.99
2018-07-14T16:22:46.949Z,40.88
2018-07-14T16:25:14.391Z,42.38
2018-07-14T16:27:41.840Z,43.61
2018-07-14T16:30:09.310Z,44.16
2018-07-14T16:32:36.774Z,44.92
2018-07-14T16:35:04.235Z,44.78
2018-07-14T16:37:31.704Z,45.06
2018-07-14T16:39:59.142Z,45.62
2018-07-14T16:42:26.607Z,46.07
2018-07-14T16:44:54.033Z,46.83
2018-07-14T16:47:21.509Z,47.53
2018-07-14T16:49:49.009Z,47.95
2018-07-14T16:52:16.839Z,47.94
2018-07-14T16:54:44.264Z,47.44
2018-07-14T16:57:11.802Z,47.44
2018-07-14T16:59:39.282Z,47.61
2018-07-14T17:02:06.710Z,47.83
2018-07-14T17:04:34.163Z,47.79
2018-07-14T17:07:01.608Z,47.01
2018-07-14T17:09:29.063Z,47.54
2018-07-14T17:11:56.511Z,48.32
2018-07-14T17:14:24.020Z,49.13
2018-07-14T17:16:51.534Z,49.19
2018-07-14T17:19:18.970Z,49.72
2018-07-14T17:21:46.632Z,50.02
2018-07-14T17:24:14.074Z,50.96
2018-07-14T17:26:41.535Z,51.88
2018-07-14T17:29:08.968Z,52.65
2018-07-14T17:31:36.465Z,53.19
2018-07-14T17:34:03.941Z,53.60
2018-07-14T17:36:31.358Z,53.57
2018-07-14T17:38:58.829Z,53.70
2018-07-14T17:41:26.292Z,53.49
2018-07-14T17:43:53.808Z,53.15
2018-07-14T17:46:21.280Z,53.25
2018-07-14T17:48:48.788Z,53.79
2018-07-14T17:51:16.184Z,54.09
2018-07-14T17:53:43.583Z,54.58
2018-07-14T17:56:11.050Z,54.44
2018-07-14T17:58:38.614Z,54.36
2018-07-14T18:01:06.023Z,53.80
2018-07-14T18:03:33.517Z,54.39
2018-07-14T18:06:00.934Z,54.69
2018-07-14T18:08:28.386Z,54.86
2018-07-14T18:10:55.877Z,55.06
2018-07-14T18:13:23.296Z,55.25
2018-07-14T18:15:50.920Z,55.30
2018-07-14T18:18:18.492Z,55.45
2018-07-14T18:20:45.928Z,55.56
2018-07-14T18:23:13.459Z,55.25
2018-07-14T18:25:40.983Z,54.88
2018-07-14T18:28:08.476Z,55.61
2018-07-14T18:30:35.906Z,56.38
2018-07-14T18:33:03.329Z,55.22
2018-07-14T18:35:30.781Z,54.45
2018-07-14T18:37:58.395Z,55.06
2018-07-14T18:40:25.839Z,54.74
2018-07-14T18:42:53.335Z,55.12
2018-07-14T18:45:20.811Z,55.15
2018-07-14T18:47:48.271Z,55.31
2018-07-14T18:50:15.694Z,55.52
2018-07-14T18:52:43.216Z,56.21
2018-07-14T18:55:10.600Z,55.84
2018-07-14T18:57:38.066Z,55.89
2018-07-14T19:00:05.501Z,55.78
2018-07-14T19:02:32.940Z,54.89
2018-07-14T19:05:00.446Z,53.34
2018-07-14T19:07:27.832Z,51.87
2018-07-14T19:09:55.307Z,51.63
2018-07-14T19:12:22.819Z,52.09
2018-07-14T19:14:50.270Z,54.31
2018-07-14T19:17:17.739Z,56.91
2018-07-14T19:19:45.207Z,57.53
2018-07-14T19:22:12.681Z,57.99
2018-07-14T19:24:40.157Z,58.53
2018-07-14T19:27:07.580Z,58.97
2018-07-14T19:29:35.038Z,57.71
2018-07-14T19:32:02.468Z,58.35
2018-07-14T19:34:29.928Z,58.52
2018-07-14T19:36:58.362Z,58.85
2018-07-14T19:39:25.859Z,58.57
2018-07-14T19:41:53.294Z,58.38
2018-07-14T19:44:20.720Z,58.70
2018-07-14T19:46:48.189Z,59.40
2018-07-14T19:49:15.641Z,60.04
2018-07-14T19:51:43.381Z,60.11
2018-07-14T19:54:10.883Z,59.71
2018-07-14T19:56:38.331Z,59.99
2018-07-14T19:59:05.890Z,61.51
2018-07-14T20:01:33.407Z,61.61
2018-07-14T20:04:01.136Z,62.38
2018-07-14T20:06:28.695Z,62.71
2018-07-14T20:08:56.103Z,63.52
2018-07-14T20:11:24.503Z,64.02
2018-07-14T20:13:52.111Z,63.55
2018-07-14T20:16:19.549Z,63.37
2018-07-14T20:18:47.150Z,63.68
2018-07-14T20:21:14.542Z,64.44
2018-07-14T20:23:41.952Z,65.45
2018-07-14T20:26:09.362Z,66.47
2018-07-14T20:28:36.864Z,66.22
2018-07-14T20:31:04.377Z,66.30
2018-07-14T20:33:31.976Z,65.94
2018-07-14T20:35:59.449Z,65.03
2018-07-14T20:38:27.070Z,63.96
2018-07-14T20:40:54.471Z,63.96
2018-07-14T20:43:21.935Z,63.53
2018-07-14T20:45:49.467Z,63.90
2018-07-14T20:48:16.996Z,63.60
2018-07-14T20:50:44.470Z,62.80
2018-07-14T20:53:12.032Z,62.85
2018-07-14T20:55:39.467Z,62.40
2018-07-14T20:58:07.054Z,61.87
2018-07-14T21:00:34.467Z,61.50
2018-07-14T21:03:01.971Z,61.20
2018-07-14T21:05:29.415Z,60.92
2018-07-14T21:07:56.911Z,61.34
2018-07-14T21:10:24.337Z,61.72
2018-07-14T21:12:51.784Z,61.17
2018-07-14T21:15:19.263Z,61.36
2018-07-14T21:17:46.882Z,61.53
2018-07-14T21:20:14.383Z,61.72
2018-07-14T21:22:41.807Z,61.63
2018-07-14T21:25:09.290Z,61.40
2018-07-14T21:27:36.828Z,61.22
2018-07-14T21:30:04.304Z,60.99
2018-07-14T21:32:31.745Z,60.79
2018-07-14T21:34:59.171Z,61.37
2018-07-14T21:37:26.631Z,61.54
2018-07-14T21:39:54.147Z,61.71
2018-07-14T21:42:21.679Z,61.47
2018-07-14T21:44:49.111Z,60.69
2018-07-14T21:47:16.545Z,60.47
2018-07-14T21:49:43.935Z,61.18
2018-07-14T21:52:11.357Z,60.99
2018-07-14T21:54:38.774Z,60.99
2018-07-14T21:57:06.210Z,61.08
2018-07-14T21:59:33.623Z,61.25
2018-07-14T22:02:01.063Z,61.46
2018-07-14T22:04:28.498Z,61.57
2018-07-14T22:06:55.953Z,61.82
2018-07-14T22:09:23.516Z,61.92
2018-07-14T22:11:51.000Z,61.90
2018-07-14T22:14:18.401Z,61.73
2018-07-14T22:16:45.843Z,61.60
2018-07-14T22:19:13.328Z,61.64
2018-07-14T22:21:40.754Z,61.70
2018-07-14T22:24:08.416Z,61.58
2018-07-14T22:26:35.926Z,61.50
2018-07-14T22:29:03.406Z,61.49
2018-07-14T22:31:30.831Z,61.43
2018-07-14T22:33:58.435Z,61.30
2018-07-14T22:36:25.920Z,61.18
2018-07-14T22:38:53.408Z,60.99
2018-07-14T22:41:20.888Z,60.93
2018-07-14T22:43:48.458Z,60.71
2018-07-14T22:46:15.868Z,60.61
2018-07-14T22:48:43.304Z,60.73
2018-07-14T22:51:10.767Z,60.77
2018-07-14T22:53:38.301Z,60.19
2018-07-14T22:56:05.728Z,59.76
2018-07-14T22:58:33.331Z,59.58
2018-07-14T23:01:00.755Z,60.08
2018-07-14T23:03:28.162Z,60.61
2018-07-14T23:05:55.580Z,61.35
2018-07-14T23:08:23.067Z,61.75
2018-07-14T23:10:50.838Z,62.29
2018-07-14T23:13:18.319Z,62.53
2018-07-14T23:15:45.750Z,62.99
2018-07-14T23:18:13.279Z,63.10
2018-07-14T23:20:40.785Z,63.82
2018-07-14T23:23:08.268Z,64.20
2018-07-14T23:25:35.812Z,64.38
2018-07-14T23:28:03.257Z,64.90
2018-07-14T23:30:30.692Z,65.60
2018-07-14T23:32:58.298Z,65.72
2018-07-14T23:35:25.793Z,65.78
2018-07-14T23:37:53.238Z,65.86
2018-07-14T23:40:20.679Z,66.32
2018-07-14T23:42:48.171Z,66.60
2018-07-14T23:45:15.696Z,66.74
2018-07-14T23:47:43.124Z,67.14
2018-07-14T23:50:10.562Z,67.82
2018-07-14T23:52:38.004Z,67.95
2018-07-14T23:55:05.442Z,68.23
2018-07-14T23:57:32.976Z,68.16
